Airfield :
LOGIN :

Register | Disclaimer

   EN    FR    IT 

 










Legend :    VFR   Marginal VFR   IFR   Intensive IFR   Very Intensive IFR
Visi :
Ceiling :
>= 8 km
>= 3000ft
5 to 8 km
1000 to 3000 ft
1500m to 5 km
500 to 1000 ft
800 to 1500m
200 to 500 ft
< 800m
< 200 ft
Symbols :   Thunderstorms  Fog  Heavy snow  Heavy precipitations  Wind > 20 kt
SIGMETs :     Misc.  Thunderstorms  Icing  Turbulence  Mountain Waves  Volcanic Ashes






- Airport Elevation : 1325 ft
- IATA code : EBU


LFMH - St-Etienne Boutheon

CURRENT METAR :
  • 201930Z AUTO 20014KT 170V230 CAVOK 16/08 Q1012

EXPIRED METARs :
  • 201900Z AUTO 19013G24KT 140V240 CAVOK 16/07 Q1012 TEMPO 18025G45KT
  • 201830Z AUTO 19016KT CAVOK 16/07 Q1012 TEMPO 18025G45KT
  • 201800Z AUTO 18014KT 150V220 CAVOK 16/07 Q1013 TEMPO 18025G45KT
  • 201730Z AUTO 19016KT 150V230 CAVOK 16/07 Q1013 TEMPO 18025G45KT
  • 201700Z AUTO 19018G32KT 170V230 CAVOK 16/07 Q1013 TEMPO 18025G45KT

TAF TAF LFMH
Valid from the 20 at 12:00 until the 21 at 12:00 UTC


201100Z 2012/2112 18020G30KT CAVOK
TEMPO 2012/2110 18025G45KT
PROB40
TEMPO 2022/2106 18035G55KT
ATIS : +33 4 77 36 17 51



MET'MAP, your aeronautical weather chart ! - Copyright ORBIFLY December 2007 - Disclaimer

ORBIFLY MET'MAP TEAM :

Programming & Development : Alexandra Zaïnal
Concept & original design : Baudouin d'Aumeries
Assistance for programming : Marc-Olivier Méhu
Technical & hardware support : Manuel Goepfert

Contact : metmap@orbifly.com




SOURCES & CREDITS :

   NOAA